Time;durP1;ratioP1;P1;durP2;ratioP2;P2;SDS_P1;SDS_P2;PMS_P1;PMS_P2;Temp;Humidity;BMP_temperature;BMP_pressure;BME280_temperature;BME280_humidity;BME280_pressure;Samples;Min_cycle;Max_cycle;Signal;HPM_P1;HPM_P2
2021/07/23 00:01:22;;;;;;;0.05;0.05;;;;;;;19.73;56.01;102216.25;5013093;28;20448;-86
2021/07/23 00:03:49;;;;;;;0.10;0.10;;;;;;;19.68;56.13;102212.84;5012453;28;20060;-85
2021/07/23 00:06:16;;;;;;;0.10;0.10;;;;;;;19.62;55.85;102207.69;5011160;28;20026;-85
2021/07/23 00:08:43;;;;;;;0.03;0.03;;;;;;;19.57;55.98;102206.97;5013480;28;20034;-85
2021/07/23 00:11:10;;;;;;;0.00;0.00;;;;;;;19.52;56.58;102208.97;5011638;28;20033;-86
2021/07/23 00:13:36;;;;;;;0.03;0.03;;;;;;;19.46;56.59;102209.19;5010930;28;20038;-85
2021/07/23 00:16:04;;;;;;;0.50;0.50;;;;;;;19.44;56.80;102208.34;5014273;28;20041;-86
2021/07/23 00:18:31;;;;;;;0.00;0.00;;;;;;;19.39;57.30;102203.16;5012510;28;20124;-86
2021/07/23 00:20:58;;;;;;;0.05;0.05;;;;;;;19.38;56.37;102204.94;5010840;28;20791;-85
2021/07/23 00:23:26;;;;;;;0.95;0.55;;;;;;;19.35;57.59;102205.06;5011953;28;20493;-85
2021/07/23 00:25:52;;;;;;;0.10;0.10;;;;;;;19.35;56.78;102198.81;5013286;28;20068;-87
2021/07/23 00:28:18;;;;;;;0.22;0.22;;;;;;;19.32;57.40;102204.31;5012581;28;20064;-87
2021/07/23 00:30:45;;;;;;;0.50;0.50;;;;;;;19.31;56.28;102202.53;5011161;28;20030;-89
2021/07/23 00:33:11;;;;;;;0.10;0.10;;;;;;;19.28;56.84;102203.53;5010536;28;20049;-85
2021/07/23 00:35:39;;;;;;;0.10;0.10;;;;;;;19.30;57.27;102203.47;5011626;28;20022;-86
2021/07/23 00:38:06;;;;;;;0.10;0.10;;;;;;;19.27;56.88;102201.78;5009870;28;20038;-87
2021/07/23 00:40:34;;;;;;;0.00;0.00;;;;;;;19.26;57.39;102205.38;5013421;28;20105;-86
2021/07/23 00:43:01;;;;;;;0.10;0.10;;;;;;;19.23;57.89;102202.81;5012131;28;20022;-86
2021/07/23 00:45:27;;;;;;;0.28;0.28;;;;;;;19.21;57.21;102197.47;5013121;28;20022;-86
2021/07/23 00:48:01;;;;;;;0.25;0.25;;;;;;;19.22;57.02;102198.38;5008222;28;20026;-87
2021/07/23 00:50:29;;;;;;;0.10;0.10;;;;;;;19.19;57.38;102203.84;5010965;28;20056;-86
2021/07/23 00:52:56;;;;;;;0.10;0.10;;;;;;;19.16;57.33;102193.22;5010222;28;20030;-86
2021/07/23 00:55:23;;;;;;;0.03;0.03;;;;;;;19.14;57.37;102200.44;5011305;28;20025;-86
2021/07/23 00:57:50;;;;;;;0.00;0.00;;;;;;;19.13;57.45;102199.56;5007693;28;20030;-87
2021/07/23 01:00:17;;;;;;;0.10;0.10;;;;;;;19.11;57.60;102204.09;5011708;28;20049;-87
2021/07/23 01:02:44;;;;;;;0.10;0.10;;;;;;;19.11;57.63;102200.56;5009146;28;20037;-86
2021/07/23 01:05:11;;;;;;;0.28;0.28;;;;;;;19.11;57.55;102198.72;5012344;28;20033;-87
2021/07/23 01:07:38;;;;;;;0.22;0.22;;;;;;;19.10;57.94;102206.84;5010446;28;20026;-87
2021/07/23 01:10:09;;;;;;;0.20;0.20;;;;;;;19.11;57.99;102205.94;5010248;28;20470;-88
2021/07/23 01:12:37;;;;;;;0.43;0.43;;;;;;;19.10;57.40;102201.47;5009663;28;20029;-87
2021/07/23 01:15:07;;;;;;;0.08;0.08;;;;;;;19.12;57.41;102207.69;5011801;28;20437;-87
2021/07/23 01:17:34;;;;;;;0.20;0.20;;;;;;;19.08;57.57;102199.72;5012520;28;20022;-87
2021/07/23 01:20:15;;;;;;;0.10;0.10;;;;;;;19.12;57.03;102202.31;5011872;28;20025;-86
2021/07/23 01:22:42;;;;;;;0.30;0.30;;;;;;;19.05;57.35;102196.25;5011388;28;20022;-86
2021/07/23 01:25:12;;;;;;;0.10;0.10;;;;;;;19.03;57.23;102196.31;5011512;28;20038;-86
2021/07/23 01:27:45;;;;;;;0.20;0.20;;;;;;;19.00;57.61;102209.84;5011996;28;20040;-87
2021/07/23 01:30:15;;;;;;;0.30;0.30;;;;;;;18.98;57.59;102194.69;5012067;28;20052;-86
2021/07/23 01:32:41;;;;;;;0.00;0.00;;;;;;;18.94;57.37;102193.06;5010992;28;20034;-85
2021/07/23 01:35:12;;;;;;;0.00;0.00;;;;;;;18.91;57.83;102194.91;5010600;28;20481;-87
2021/07/23 01:37:40;;;;;;;0.10;0.10;;;;;;;18.91;58.20;102199.41;5013956;28;20069;-86
2021/07/23 01:40:10;;;;;;;0.40;0.40;;;;;;;18.87;57.53;102195.03;5010561;28;20026;-87
2021/07/23 01:42:38;;;;;;;0.25;0.25;;;;;;;18.86;57.80;102196.84;5009778;28;20028;-86
2021/07/23 01:45:06;;;;;;;0.10;0.10;;;;;;;18.84;57.59;102197.81;5012186;28;20018;-85
2021/07/23 01:47:33;;;;;;;0.10;0.10;;;;;;;18.82;58.32;102195.19;5007246;28;20033;-85
2021/07/23 01:50:00;;;;;;;0.22;0.22;;;;;;;18.82;58.30;102199.69;5012354;28;20053;-85
2021/07/23 01:52:27;;;;;;;1.45;0.90;;;;;;;18.80;58.27;102196.19;5012299;28;20620;-88
2021/07/23 01:54:53;;;;;;;0.10;0.10;;;;;;;18.80;58.45;102196.19;5010359;28;20069;-86
2021/07/23 01:57:20;;;;;;;0.20;0.20;;;;;;;18.81;57.81;102187.19;5010892;28;20026;-85
2021/07/23 01:59:46;;;;;;;0.10;0.10;;;;;;;18.79;58.12;102189.03;5013289;28;20405;-85
2021/07/23 02:02:13;;;;;;;0.10;0.10;;;;;;;18.78;58.09;102187.28;5014802;28;20034;-85
2021/07/23 02:04:40;;;;;;;0.10;0.10;;;;;;;18.76;58.39;102187.34;5011419;28;20030;-88
2021/07/23 02:07:07;;;;;;;0.10;0.10;;;;;;;18.75;58.18;102191.84;5013738;28;20477;-85
2021/07/23 02:09:33;;;;;;;1.67;1.58;;;;;;;18.74;58.15;102190.09;5011834;28;20521;-85
2021/07/23 02:12:00;;;;;;;0.40;0.40;;;;;;;18.72;58.70;102186.56;5013084;28;20056;-85
2021/07/23 02:14:30;;;;;;;0.00;0.00;;;;;;;18.70;58.43;102191.09;5011242;28;20065;-86
2021/07/23 02:16:57;;;;;;;0.10;0.10;;;;;;;18.69;58.62;102186.69;5014982;28;20026;-87
2021/07/23 02:19:23;;;;;;;0.10;0.10;;;;;;;18.68;58.41;102190.28;5014904;28;20026;-85
2021/07/23 02:21:51;;;;;;;0.15;0.15;;;;;;;18.67;58.34;102188.53;5013996;28;20025;-86
2021/07/23 02:24:18;;;;;;;0.57;0.57;;;;;;;18.66;58.05;102189.44;5015062;28;20026;-85
2021/07/23 02:26:44;;;;;;;0.30;0.30;;;;;;;18.65;58.20;102187.69;5013065;28;20034;-85
2021/07/23 02:29:11;;;;;;;0.10;0.10;;;;;;;18.64;58.74;102185.94;5012371;28;20018;-84
2021/07/23 02:31:38;;;;;;;0.10;0.10;;;;;;;18.64;57.83;102180.59;5012034;28;20030;-85
2021/07/23 02:34:04;;;;;;;0.10;0.10;;;;;;;18.63;58.89;102175.25;5013655;28;20160;-85
2021/07/23 02:36:31;;;;;;;0.00;0.00;;;;;;;18.63;58.18;102168.09;5015828;28;20080;-85
2021/07/23 02:39:00;;;;;;;0.73;0.73;;;;;;;18.61;58.70;102174.44;5014053;28;20030;-85
2021/07/23 02:41:27;;;;;;;0.10;0.10;;;;;;;18.60;58.78;102178.91;5009430;28;20025;-86
2021/07/23 02:43:54;;;;;;;2.38;1.00;;;;;;;18.60;58.38;102181.59;5015390;28;20049;-86
2021/07/23 02:46:21;;;;;;;0.00;0.00;;;;;;;18.58;58.51;102175.41;5013994;28;20098;-87
2021/07/23 02:48:47;;;;;;;0.28;0.28;;;;;;;18.56;58.22;102177.25;5014183;28;20038;-87
2021/07/23 02:51:14;;;;;;;0.10;0.10;;;;;;;18.53;58.18;102169.28;5015829;28;20053;-86
2021/07/23 02:53:49;;;;;;;0.10;0.10;;;;;;;18.56;58.20;102169.22;5015169;28;20037;-86
2021/07/23 02:56:16;;;;;;;0.20;0.20;;;;;;;18.49;58.51;102162.28;5013891;28;20092;-86
2021/07/23 02:58:46;;;;;;;0.10;0.10;;;;;;;18.48;58.77;102166.78;5008888;28;21367;-86
2021/07/23 03:01:12;;;;;;;0.10;0.10;;;;;;;18.48;58.70;102160.50;5010089;28;20030;-86
2021/07/23 03:03:39;;;;;;;0.10;0.10;;;;;;;18.46;58.54;102167.75;5014486;28;20080;-87
2021/07/23 03:06:06;;;;;;;0.63;0.63;;;;;;;18.42;58.88;102162.47;5014880;28;20494;-87
2021/07/23 03:08:33;;;;;;;0.40;0.40;;;;;;;18.41;58.74;102158.03;5013294;28;20077;-89
2021/07/23 03:11:03;;;;;;;0.28;0.28;;;;;;;18.47;58.92;102156.97;5013294;28;20497;-89
2021/07/23 03:13:34;;;;;;;0.10;0.10;;;;;;;18.48;58.67;102157.81;5012321;28;20079;-85
2021/07/23 03:16:17;;;;;;;0.38;0.38;;;;;;;18.55;58.76;102145.97;5011423;28;20022;-85
2021/07/23 03:18:50;;;;;;;0.10;0.10;;;;;;;18.60;58.73;102146.69;5013217;28;20032;-86
2021/07/23 03:21:27;;;;;;;0.10;0.10;;;;;;;18.66;58.79;102146.50;5013175;28;20025;-84
2021/07/23 03:23:55;;;;;;;0.10;0.10;;;;;;;18.70;58.69;102140.09;5008588;28;20033;-89
2021/07/23 03:26:21;;;;;;;0.20;0.20;;;;;;;18.78;58.48;102136.28;5011339;28;20026;-85
2021/07/23 03:28:48;;;;;;;0.10;0.10;;;;;;;18.83;58.19;102136.97;5011499;28;20029;-86
2021/07/23 03:31:14;;;;;;;0.10;0.10;;;;;;;18.87;58.27;102144.03;5001064;28;20199;-85
2021/07/23 03:33:41;;;;;;;0.60;0.60;;;;;;;18.94;58.37;102137.56;5000602;28;20504;-84
2021/07/23 03:36:08;;;;;;;0.20;0.20;;;;;;;19.01;58.39;102136.38;5011382;28;20520;-85
2021/07/23 03:38:34;;;;;;;0.40;0.40;;;;;;;19.10;58.09;102132.50;5007874;28;20101;-86
2021/07/23 03:41:00;;;;;;;0.00;0.00;;;;;;;19.20;57.79;102130.38;4998875;28;20053;-85
2021/07/23 03:43:27;;;;;;;0.10;0.10;;;;;;;19.26;58.10;102130.16;5001917;28;20038;-85
2021/07/23 03:45:54;;;;;;;0.10;0.10;;;;;;;19.34;57.56;102132.53;4998426;28;20094;-85
2021/07/23 03:48:20;;;;;;;0.10;0.10;;;;;;;19.37;57.45;102130.63;5002343;28;20060;-85
2021/07/23 03:50:48;;;;;;;0.55;0.38;;;;;;;19.43;57.75;102137.59;4998187;28;20035;-85
2021/07/23 03:53:15;;;;;;;0.17;0.17;;;;;;;19.48;57.26;102135.63;5006199;28;20033;-85
2021/07/23 03:55:41;;;;;;;0.10;0.10;;;;;;;19.52;57.73;102137.25;5004302;28;20075;-85
2021/07/23 03:58:07;;;;;;;0.30;0.30;;;;;;;19.57;57.86;102139.78;5004015;28;20018;-84
2021/07/23 04:00:34;;;;;;;0.03;0.03;;;;;;;19.62;57.50;102143.16;4994869;28;20022;-84
2021/07/23 04:03:00;;;;;;;0.10;0.10;;;;;;;19.67;57.43;102135.78;4994100;28;20038;-85
2021/07/23 04:05:26;;;;;;;0.10;0.10;;;;;;;19.71;57.55;102132.09;5007058;28;20056;-84
2021/07/23 04:07:52;;;;;;;0.10;0.10;;;;;;;19.75;57.57;102130.16;4993712;28;20549;-85
2021/07/23 04:10:19;;;;;;;0.90;0.65;;;;;;;19.79;57.23;102121.03;4993638;28;20864;-85
2021/07/23 04:12:45;;;;;;;0.08;0.08;;;;;;;19.83;57.04;102129.88;4993168;28;20042;-84
2021/07/23 04:15:11;;;;;;;0.32;0.32;;;;;;;19.83;57.22;102132.56;4993358;28;20442;-85
2021/07/23 04:17:37;;;;;;;0.10;0.10;;;;;;;19.90;56.82;102128.72;4993008;28;20105;-85
2021/07/23 04:20:05;;;;;;;0.30;0.30;;;;;;;19.94;56.77;102126.75;4992943;28;20462;-86
2021/07/23 04:22:31;;;;;;;0.20;0.17;;;;;;;19.98;56.49;102134.66;4992410;28;20030;-85
2021/07/23 04:24:57;;;;;;;0.35;0.35;;;;;;;20.02;56.32;102130.91;4993214;28;20073;-85
2021/07/23 04:27:23;;;;;;;0.00;0.00;;;;;;;20.03;56.23;102126.41;4994772;28;20370;-86
2021/07/23 04:29:49;;;;;;;0.10;0.10;;;;;;;20.04;56.28;102120.09;5010088;28;20025;-85
2021/07/23 04:32:16;;;;;;;0.20;0.20;;;;;;;20.07;56.40;102116.41;5001969;28;20069;-86
2021/07/23 04:34:42;;;;;;;0.10;0.10;;;;;;;20.09;56.19;102120.78;4993089;28;20030;-87
2021/07/23 04:37:08;;;;;;;0.00;0.00;;;;;;;20.12;56.42;102119.78;4992985;28;20026;-85
2021/07/23 04:39:34;;;;;;;0.10;0.10;;;;;;;20.12;56.17;102119.78;4993393;28;20096;-86
2021/07/23 04:42:05;;;;;;;0.10;0.10;;;;;;;20.17;55.98;102117.78;4993241;28;20026;-86
2021/07/23 04:44:31;;;;;;;0.25;0.25;;;;;;;20.18;56.00;102111.47;4993305;28;20184;-85
2021/07/23 04:47:01;;;;;;;0.10;0.10;;;;;;;20.18;55.78;102108.78;4992912;28;20030;-85
2021/07/23 04:49:28;;;;;;;0.43;0.43;;;;;;;20.20;56.11;102112.28;4993395;28;20057;-86
2021/07/23 04:51:54;;;;;;;0.17;0.17;;;;;;;20.24;56.05;102113.91;4992939;28;20034;-85
2021/07/23 04:54:21;;;;;;;0.10;0.10;;;;;;;20.27;56.15;102113.78;4992982;28;20116;-87
2021/07/23 04:56:50;;;;;;;0.32;0.32;;;;;;;20.33;55.80;102108.13;4992916;28;20117;-86
2021/07/23 04:59:17;;;;;;;0.43;0.43;;;;;;;20.35;55.52;102105.41;4992990;28;20497;-86
2021/07/23 05:01:43;;;;;;;0.00;0.00;;;;;;;20.39;55.33;102106.13;4993021;28;20026;-86
2021/07/23 05:04:09;;;;;;;0.17;0.17;;;;;;;20.43;55.26;102115.84;4993225;28;20054;-85
2021/07/23 05:06:35;;;;;;;0.00;0.00;;;;;;;20.46;55.20;102115.72;4995978;28;20445;-86
2021/07/23 05:09:03;;;;;;;0.00;0.00;;;;;;;20.48;55.21;102113.84;5004146;28;20114;-86
2021/07/23 05:11:30;;;;;;;0.00;0.00;;;;;;;20.49;54.83;102112.91;5010797;28;20037;-86
2021/07/23 05:13:56;;;;;;;0.10;0.10;;;;;;;20.49;55.24;102104.84;5009856;28;20041;-85
2021/07/23 05:16:22;;;;;;;0.10;0.10;;;;;;;20.55;54.97;102115.34;4997404;28;20407;-85
2021/07/23 05:18:48;;;;;;;0.20;0.20;;;;;;;20.58;54.79;102111.66;4992375;28;20748;-86
2021/07/23 05:21:14;;;;;;;0.22;0.22;;;;;;;20.60;54.88;102109.75;4992997;28;20438;-86
2021/07/23 05:23:42;;;;;;;0.03;0.03;;;;;;;20.63;54.88;102109.63;4992624;28;20062;-87
2021/07/23 05:26:09;;;;;;;0.10;0.10;;;;;;;20.58;54.82;102106.25;4992834;28;20098;-87
2021/07/23 05:28:36;;;;;;;0.10;0.10;;;;;;;20.60;55.01;102107.06;4992452;28;20031;-85
2021/07/23 05:31:02;;;;;;;0.10;0.10;;;;;;;20.62;55.22;102105.19;4994180;28;20030;-85
2021/07/23 05:33:28;;;;;;;0.55;0.55;;;;;;;20.64;55.34;102106.88;4993921;28;20038;-85
2021/07/23 05:35:54;;;;;;;0.30;0.30;;;;;;;20.68;55.20;102108.47;4999665;28;20026;-84
2021/07/23 05:38:20;;;;;;;0.08;0.08;;;;;;;20.72;54.71;102106.56;4999319;28;20042;-85
2021/07/23 05:40:46;;;;;;;0.10;0.10;;;;;;;20.75;54.47;102113.63;5001966;28;20030;-86
2021/07/23 05:43:13;;;;;;;0.40;0.40;;;;;;;20.77;54.88;102107.28;4999618;28;20034;-86
2021/07/23 05:45:40;;;;;;;0.10;0.10;;;;;;;20.82;55.05;102107.06;5003706;28;20520;-85
2021/07/23 05:48:07;;;;;;;0.10;0.10;;;;;;;20.85;55.03;102105.09;5000525;28;20121;-86
2021/07/23 05:50:34;;;;;;;0.10;0.10;;;;;;;20.91;54.80;102101.28;5011226;28;20030;-87
2021/07/23 05:53:00;;;;;;;0.10;0.10;;;;;;;21.02;54.69;102100.78;5014547;28;20056;-85
2021/07/23 05:55:27;;;;;;;0.10;0.10;;;;;;;21.13;54.15;102094.94;5014566;28;20034;-85
2021/07/23 05:57:58;;;;;;;0.10;0.10;;;;;;;21.19;53.90;102096.50;5012108;28;20030;-85
2021/07/23 06:00:27;;;;;;;0.40;0.40;;;;;;;21.23;53.86;102093.56;5012541;28;20113;-85
2021/07/23 06:03:00;;;;;;;0.15;0.15;;;;;;;21.27;54.35;102091.59;5012863;28;20365;-84
2021/07/23 06:05:26;;;;;;;0.10;0.10;;;;;;;21.33;53.65;102089.53;5004339;28;20030;-85
2021/07/23 06:07:52;;;;;;;0.10;0.10;;;;;;;21.41;53.75;102096.38;4995982;28;20090;-86
2021/07/23 06:10:18;;;;;;;0.10;0.10;;;;;;;21.46;53.98;102091.66;4996027;28;20035;-85
2021/07/23 06:12:44;;;;;;;0.75;0.75;;;;;;;21.52;53.85;102088.69;4995676;28;20070;-85
2021/07/23 06:15:10;;;;;;;0.22;0.22;;;;;;;21.57;53.84;102092.06;5004826;28;20045;-85
2021/07/23 06:17:39;;;;;;;0.55;0.55;;;;;;;21.64;53.35;102093.50;5012668;28;20121;-85
2021/07/23 06:20:06;;;;;;;0.10;0.10;;;;;;;21.68;53.08;102087.97;5012306;28;20052;-83
2021/07/23 06:22:32;;;;;;;0.10;0.10;;;;;;;21.69;53.08;102087.03;5000150;28;20601;-84
2021/07/23 06:24:58;;;;;;;0.20;0.20;;;;;;;21.71;52.82;102077.94;5015344;28;20473;-84
2021/07/23 06:27:26;;;;;;;0.10;0.10;;;;;;;21.74;52.76;102076.91;5002312;28;20027;-84
2021/07/23 06:29:53;;;;;;;3.30;1.95;;;;;;;21.77;52.97;102082.13;5005017;28;20351;-85
2021/07/23 06:32:20;;;;;;;0.10;0.10;;;;;;;21.81;53.27;102078.38;5000326;28;20494;-85
2021/07/23 06:34:47;;;;;;;0.10;0.10;;;;;;;21.82;53.83;102085.53;5009209;28;20026;-85
2021/07/23 06:37:15;;;;;;;0.45;0.45;;;;;;;21.87;53.43;102083.47;5010233;28;20034;-85
2021/07/23 06:39:42;;;;;;;0.10;0.10;;;;;;;21.91;53.45;102082.38;5012552;28;20112;-85
2021/07/23 06:42:08;;;;;;;0.10;0.10;;;;;;;21.93;53.22;102087.69;5001739;28;20049;-86
2021/07/23 06:44:36;;;;;;;0.08;0.08;;;;;;;21.96;53.00;102079.44;4995971;28;20034;-85
2021/07/23 06:47:03;;;;;;;0.10;0.10;;;;;;;21.98;52.70;102086.53;4998910;28;20030;-85
2021/07/23 06:49:29;;;;;;;0.10;0.10;;;;;;;22.04;52.99;102081.78;5005530;28;20394;-84
2021/07/23 06:51:55;;;;;;;0.10;0.10;;;;;;;22.04;52.18;102081.78;5008179;28;20030;-84
2021/07/23 06:54:21;;;;;;;0.03;0.03;;;;;;;22.01;52.64;102079.22;4993347;28;20057;-84
2021/07/23 06:56:50;;;;;;;0.00;0.00;;;;;;;22.07;52.30;102084.31;5008803;28;20552;-84
2021/07/23 06:59:16;;;;;;;0.47;0.47;;;;;;;22.05;52.62;102087.09;5003798;28;20371;-84
2021/07/23 07:01:42;;;;;;;0.10;0.10;;;;;;;22.10;52.11;102089.56;5010762;28;20034;-85
2021/07/23 07:04:08;;;;;;;0.00;0.00;;;;;;;22.18;52.25;102090.09;5012810;28;20061;-86
2021/07/23 07:06:34;;;;;;;0.10;0.10;;;;;;;22.23;51.95;102085.31;5012855;28;20022;-82
2021/07/23 07:09:01;;;;;;;1.17;0.90;;;;;;;22.30;52.13;102093.97;5011741;28;20022;-86
2021/07/23 07:11:27;;;;;;;0.80;0.40;;;;;;;22.33;51.86;102088.44;4997237;28;20069;-84
2021/07/23 07:13:53;;;;;;;0.43;0.43;;;;;;;22.41;51.75;102096.19;4999742;28;20034;-85
2021/07/23 07:16:19;;;;;;;0.10;0.10;;;;;;;22.36;52.35;102101.78;4997119;28;20403;-85
2021/07/23 07:18:45;;;;;;;0.15;0.15;;;;;;;22.40;51.62;102091.72;4997810;28;20117;-85
2021/07/23 07:21:13;;;;;;;0.10;0.10;;;;;;;22.30;51.83;102089.44;4998955;28;20109;-86
2021/07/23 07:23:40;;;;;;;0.45;0.45;;;;;;;22.28;51.22;102094.06;4997464;28;20030;-85
2021/07/23 07:26:09;;;;;;;0.17;0.17;;;;;;;22.36;51.86;102095.50;4999434;28;20037;-85
2021/07/23 07:28:35;;;;;;;0.10;0.10;;;;;;;22.42;51.76;102100.63;4997027;28;20034;-86
2021/07/23 07:31:01;;;;;;;0.10;0.10;;;;;;;22.48;51.93;102103.03;5004020;28;20030;-85
2021/07/23 07:33:30;;;;;;;0.10;0.10;;;;;;;22.54;51.57;102105.44;5012074;28;20108;-85
2021/07/23 07:35:56;;;;;;;0.13;0.13;;;;;;;22.58;51.35;102107.00;5012347;28;20397;-84
2021/07/23 07:38:23;;;;;;;0.00;0.00;;;;;;;22.59;50.94;102108.75;4996340;28;20026;-86
2021/07/23 07:40:49;;;;;;;0.10;0.10;;;;;;;22.60;51.03;102110.50;5001826;28;20030;-85
2021/07/23 07:43:15;;;;;;;0.35;0.35;;;;;;;22.60;51.14;102110.50;5001999;28;20062;-85
2021/07/23 07:45:44;;;;;;;0.10;0.10;;;;;;;22.58;50.65;102111.50;5006307;28;20397;-86
2021/07/23 07:48:10;;;;;;;0.10;0.10;;;;;;;22.69;50.70;102108.28;4999388;28;20030;-86
2021/07/23 07:50:37;;;;;;;0.35;0.35;;;;;;;22.69;50.86;102113.69;4999424;28;20560;-86
2021/07/23 07:53:09;;;;;;;0.20;0.20;;;;;;;22.82;51.27;102104.00;5010860;28;20048;-86
2021/07/23 07:55:36;;;;;;;0.10;0.10;;;;;;;22.81;51.33;102107.66;4996044;28;20088;-86
2021/07/23 07:58:02;;;;;;;0.45;0.45;;;;;;;22.90;50.82;102109.00;5004805;28;20064;-86
2021/07/23 08:00:28;;;;;;;0.13;0.13;;;;;;;22.90;50.13;102106.28;4999113;28;20068;-85
2021/07/23 08:02:54;;;;;;;0.30;0.30;;;;;;;23.01;50.34;102097.63;5010484;28;20034;-86
2021/07/23 08:05:20;;;;;;;0.05;0.05;;;;;;;23.11;50.56;102098.88;5008995;28;20117;-85
2021/07/23 08:07:46;;;;;;;0.43;0.43;;;;;;;23.16;50.18;102091.44;4993722;28;20441;-86
2021/07/23 08:10:15;;;;;;;0.10;0.10;;;;;;;23.22;50.19;102093.81;4993863;28;20025;-86
2021/07/23 08:12:41;;;;;;;0.10;0.10;;;;;;;23.27;49.37;102091.72;4993589;28;20049;-87
2021/07/23 08:15:08;;;;;;;0.20;0.20;;;;;;;23.26;49.68;102084.59;5006939;28;20030;-87
2021/07/23 08:17:34;;;;;;;0.13;0.13;;;;;;;23.33;49.43;102092.34;5009788;28;20382;-87
2021/07/23 08:20:02;;;;;;;0.10;0.10;;;;;;;23.39;49.75;102092.00;5007008;28;20034;-88
2021/07/23 08:22:29;;;;;;;0.10;0.10;;;;;;;23.47;49.41;102089.78;4994330;28;20026;-87
2021/07/23 08:24:56;;;;;;;0.10;0.10;;;;;;;23.43;50.01;102093.63;4993522;28;20026;-86
2021/07/23 08:27:22;;;;;;;0.00;0.00;;;;;;;23.50;49.56;102086.03;4993195;28;20076;-87
2021/07/23 08:29:51;;;;;;;4.15;0.43;;;;;;;23.52;49.33;102093.09;4993381;28;20390;-88
2021/07/23 08:32:18;;;;;;;0.40;0.40;;;;;;;23.52;49.17;102092.22;4993458;28;20038;-89
2021/07/23 08:34:44;;;;;;;0.28;0.28;;;;;;;23.47;49.73;102089.78;4993381;28;20147;-88
2021/07/23 08:37:10;;;;;;;0.10;0.10;;;;;;;23.56;49.16;102089.28;4993644;28;20053;-88
2021/07/23 08:39:36;;;;;;;0.10;0.10;;;;;;;23.70;49.23;102087.63;4993594;28;20053;-88
2021/07/23 08:42:27;;;;;;;0.38;0.38;;;;;;;23.82;48.19;102078.81;4993346;28;20034;-88
2021/07/23 08:44:54;;;;;;;0.43;0.43;;;;;;;23.85;48.94;102081.34;4993337;28;20026;-88
2021/07/23 08:47:21;;;;;;;0.30;0.30;;;;;;;23.87;48.69;102083.97;4993143;28;20533;-87
2021/07/23 08:49:48;;;;;;;0.00;0.00;;;;;;;23.89;48.27;102074.81;4993194;28;20185;-88
2021/07/23 08:52:14;;;;;;;0.63;0.40;;;;;;;23.96;48.35;102080.75;4993080;28;20509;-89
2021/07/23 08:54:41;;;;;;;0.15;0.15;;;;;;;23.95;48.92;102080.84;4993074;28;20113;-89
2021/07/23 08:57:09;;;;;;;0.40;0.40;;;;;;;24.01;48.47;102077.78;4995341;28;20121;-83
2021/07/23 08:59:36;;;;;;;0.20;0.20;;;;;;;24.02;48.22;102074.13;5011329;28;20128;-87
2021/07/23 09:02:04;;;;;;;0.10;0.10;;;;;;;24.05;48.19;102064.00;4998239;28;20034;-87
2021/07/23 09:04:35;;;;;;;1.08;0.45;;;;;;;24.10;48.14;102068.25;4992941;28;20526;-87
2021/07/23 09:10:04;;;;;;;0.10;0.10;;;;;;;24.12;48.34;102061.81;5116531;27;20943;-86
2021/07/23 09:12:50;;;;;;;0.20;0.20;;;;;;;24.19;48.40;102057.78;5110423;28;20036;-87
2021/07/23 09:15:21;;;;;;;0.55;0.55;;;;;;;24.20;48.09;102051.41;5095923;28;20487;-87
2021/07/23 09:17:47;;;;;;;0.10;0.10;;;;;;;24.22;48.62;102046.78;5097611;28;20024;-87
2021/07/23 09:20:14;;;;;;;0.13;0.13;;;;;;;24.31;47.78;102041.75;5089655;28;20115;-87
2021/07/23 09:22:45;;;;;;;0.88;0.17;;;;;;;24.41;47.65;102042.94;5089861;28;20032;-87
2021/07/23 09:25:13;;;;;;;0.47;0.47;;;;;;;24.40;47.74;102046.66;5089823;28;20063;-86
2021/07/23 09:27:39;;;;;;;0.10;0.10;;;;;;;24.37;48.18;102034.16;5089395;28;20115;-85
2021/07/23 09:30:07;;;;;;;0.10;0.10;;;;;;;24.42;47.93;102039.28;5090336;28;20040;-86
2021/07/23 09:32:35;;;;;;;0.10;0.10;;;;;;;24.47;47.71;102036.31;5090809;28;20399;-87
2021/07/23 09:35:17;;;;;;;0.10;0.10;;;;;;;24.49;46.86;102034.38;5091079;28;20028;-86
2021/07/23 09:37:59;;;;;;;0.10;0.10;;;;;;;24.55;47.13;102029.47;5090487;28;20107;-86
2021/07/23 09:40:38;;;;;;;0.43;0.43;;;;;;;24.51;47.33;102033.34;5100656;28;20032;-88
2021/07/23 09:43:04;;;;;;;0.32;0.32;;;;;;;24.50;47.20;102026.16;5097544;28;20719;-87
2021/07/23 09:45:32;;;;;;;0.10;0.10;;;;;;;24.58;47.20;102019.41;5092600;28;20032;-87
2021/07/23 09:48:11;;;;;;;0.10;0.10;;;;;;;24.69;46.68;102023.22;5090681;28;20082;-87
2021/07/23 09:50:44;;;;;;;0.10;0.10;;;;;;;24.78;46.62;102024.50;5091225;28;20025;-87
2021/07/23 09:53:16;;;;;;;0.52;0.52;;;;;;;24.68;46.59;102020.63;5090051;28;20028;-90
2021/07/23 09:55:46;;;;;;;0.10;0.10;;;;;;;24.71;46.87;102015.88;5093162;28;20055;-88
2021/07/23 09:58:18;;;;;;;0.43;0.43;;;;;;;24.62;46.90;102013.69;5098718;28;20132;-88
2021/07/23 10:00:50;;;;;;;0.10;0.10;;;;;;;24.95;46.70;102020.75;5097945;28;20028;-88
2021/07/23 10:03:17;;;;;;;;;;;;;;;25.19;47.02;102012.91;5100637;28;20389;-89
2021/07/23 10:05:50;;;;;;;0.35;0.35;;;;;;;25.34;46.13;102021.03;5090144;28;20381;-87
2021/07/23 10:08:23;;;;;;;0.13;0.13;;;;;;;25.50;45.67;102008.25;5091146;28;20028;-87
2021/07/23 10:10:52;;;;;;;1.92;1.13;;;;;;;25.57;45.54;102016.88;5098412;28;20492;-89
2021/07/23 10:13:27;;;;;;;0.10;0.10;;;;;;;25.68;45.59;102019.75;5095420;28;20032;-88
2021/07/23 10:15:54;;;;;;;0.40;0.22;;;;;;;25.78;44.92;102009.16;5089837;28;20028;-87
2021/07/23 10:18:21;;;;;;;0.28;0.28;;;;;;;25.82;44.61;102016.13;5096202;28;20110;-85
2021/07/23 10:20:50;;;;;;;0.10;0.10;;;;;;;25.99;43.42;102014.13;5083485;28;20132;-86
2021/07/23 10:23:21;;;;;;;0.15;0.15;;;;;;;26.04;42.96;102009.25;5074558;28;20395;-84
2021/07/23 10:25:49;;;;;;;0.13;0.13;;;;;;;26.00;43.73;102003.16;5084318;28;20028;-85
2021/07/23 10:28:36;;;;;;;0.20;0.20;;;;;;;26.23;43.75;101999.88;5081927;28;20544;-87
2021/07/23 10:34:00;;;;;;;0.20;0.20;;;;;;;26.19;43.92;101990.22;5096060;27;20949;-87
2021/07/23 10:39:17;;;;;;;1.27;0.70;;;;;;;26.11;43.96;101997.03;5130767;27;20398;-85
2021/07/23 11:06:47;;;;;;;0.10;0.10;;;;;;;26.32;42.65;101953.09;5096394;27;1342168;-90
2021/07/23 11:09:14;;;;;;;0.63;0.50;;;;;;;26.34;43.31;101951.09;5117742;28;20039;-85
2021/07/23 11:11:43;;;;;;;0.10;0.10;;;;;;;26.44;43.06;101941.34;5118877;28;20122;-89
2021/07/23 11:14:16;;;;;;;0.10;0.10;;;;;;;26.28;42.95;101944.28;5113610;28;20052;-86
2021/07/23 11:16:42;;;;;;;0.30;0.30;;;;;;;26.40;43.51;101942.53;5118094;28;20389;-87
2021/07/23 11:19:20;;;;;;;0.10;0.10;;;;;;;26.50;42.38;101937.31;5116506;28;20035;-88
2021/07/23 11:21:50;;;;;;;0.10;0.10;;;;;;;26.55;42.87;101926.13;5113987;28;20030;-87
2021/07/23 11:24:16;;;;;;;0.28;0.28;;;;;;;26.53;42.84;101928.09;5114845;27;20026;-88
2021/07/23 11:26:53;;;;;;;0.10;0.10;;;;;;;26.70;42.66;101919.59;5118191;28;20401;-88
2021/07/23 11:29:37;;;;;;;0.57;0.57;;;;;;;26.94;42.50;101921.53;5121417;28;20028;-87
2021/07/23 11:32:07;;;;;;;0.55;0.55;;;;;;;26.90;42.36;101920.03;5117124;28;20068;-87
2021/07/23 11:34:38;;;;;;;0.55;0.32;;;;;;;26.83;41.46;101921.47;5114754;27;20034;-87
2021/07/23 11:42:39;;;;;;;0.10;0.10;;;;;;;26.58;41.78;101915.03;5071265;27;20415;-83
2021/07/23 11:45:10;;;;;;;0.10;0.10;;;;;;;26.71;42.21;101899.59;5063820;28;20035;-84
2021/07/23 11:50:25;;;;;;;0.05;0.05;;;;;;;27.00;42.31;101893.91;5119626;27;20805;-87
2021/07/23 11:53:02;;;;;;;0.95;0.95;;;;;;;27.21;41.59;101898.75;5105928;28;20025;-87
2021/07/23 11:55:44;;;;;;;4.45;1.55;;;;;;;27.41;41.09;101902.75;5104085;28;20024;-87
2021/07/23 11:58:26;;;;;;;0.17;0.17;;;;;;;27.39;40.12;101900.09;5096589;28;20064;-89
2021/07/23 12:00:55;;;;;;;0.40;0.40;;;;;;;27.32;40.52;101901.53;5087661;28;20038;-89
2021/07/23 12:03:23;;;;;;;0.00;0.00;;;;;;;27.34;40.98;101899.59;5089021;28;20036;-87
2021/07/23 12:05:53;;;;;;;0.10;0.10;;;;;;;27.21;40.25;101890.59;5083949;28;20034;-88
2021/07/23 12:08:21;;;;;;;0.98;0.80;;;;;;;27.33;40.46;101888.78;5075797;28;20096;-89
2021/07/23 12:10:49;;;;;;;0.47;0.40;;;;;;;27.54;41.60;101875.44;5079061;28;20056;-85